createdAt,value
2022-12-11T00:01:43.052Z,95157.41
2022-12-11T00:04:09.733Z,95154.47
2022-12-11T00:06:36.366Z,95141.81
2022-12-11T00:09:03.123Z,95153.75
2022-12-11T00:11:29.792Z,95151.25
2022-12-11T00:13:56.471Z,95156.13
2022-12-11T00:16:26.852Z,95158.81
2022-12-11T00:18:54.527Z,95151.44
2022-12-11T00:21:21.173Z,95152.03
2022-12-11T00:23:47.835Z,95154.25
2022-12-11T00:26:16.028Z,95157.06
2022-12-11T00:28:43.830Z,95155.47
2022-12-11T00:31:14.786Z,95159.75
2022-12-11T00:33:42.431Z,95153.22
2022-12-11T00:36:17.774Z,95140.56
2022-12-11T00:38:44.664Z,95154.44
2022-12-11T00:41:12.501Z,95150.28
2022-12-11T00:43:39.185Z,95154.28
2022-12-11T00:46:06.011Z,95154.03
2022-12-11T00:48:32.870Z,95153.75
2022-12-11T00:50:59.804Z,95161.56
2022-12-11T00:53:26.532Z,95164.22
2022-12-11T00:55:53.210Z,95153.59
2022-12-11T00:58:20.145Z,95166.75
2022-12-11T01:00:48.378Z,95161.00
2022-12-11T01:03:16.110Z,95151.09
2022-12-11T01:05:54.212Z,95149.50
2022-12-11T01:08:21.464Z,95153.34
2022-12-11T01:10:48.300Z,95154.66
2022-12-11T01:13:15.463Z,95165.28
2022-12-11T01:15:45.233Z,95172.22
2022-12-11T01:18:14.440Z,95171.22
2022-12-11T01:20:42.695Z,95168.88
2022-12-11T01:23:13.038Z,95167.72
2022-12-11T01:25:40.677Z,95176.16
2022-12-11T01:28:08.489Z,95179.97
2022-12-11T01:30:35.934Z,95189.28
2022-12-11T01:33:02.935Z,95185.00
2022-12-11T01:35:29.591Z,95174.56
2022-12-11T01:37:56.434Z,95189.00
2022-12-11T01:40:23.194Z,95203.63
2022-12-11T01:42:50.407Z,95201.28
2022-12-11T01:45:32.153Z,95200.66
2022-12-11T01:48:05.470Z,95201.28
2022-12-11T01:50:36.282Z,95194.91
2022-12-11T01:53:06.322Z,95202.19
2022-12-11T01:55:33.452Z,95201.44
2022-12-11T01:58:02.326Z,95202.81
2022-12-11T02:00:28.979Z,95205.91
2022-12-11T02:02:55.767Z,95203.53
2022-12-11T02:05:22.422Z,95211.03
2022-12-11T02:07:58.537Z,95204.84
2022-12-11T02:10:34.667Z,95203.66
2022-12-11T02:13:09.936Z,95184.59
2022-12-11T02:15:51.667Z,95190.34
2022-12-11T02:18:33.490Z,95180.13
2022-12-11T02:21:24.885Z,95178.81
2022-12-11T02:24:25.735Z,95178.81
2022-12-11T02:27:08.910Z,95163.13
2022-12-11T02:29:52.044Z,95172.16
2022-12-11T02:32:29.620Z,95181.00
2022-12-11T02:35:02.973Z,95177.75
2022-12-11T02:37:32.148Z,95183.09
2022-12-11T02:39:58.824Z,95172.16
2022-12-11T02:42:30.856Z,95175.69
2022-12-11T02:45:00.674Z,95183.50
2022-12-11T02:47:30.558Z,95179.22
2022-12-11T02:50:00.274Z,95169.34
2022-12-11T02:52:29.974Z,95178.31
2022-12-11T02:54:59.689Z,95183.19
2022-12-11T02:57:38.444Z,95187.47
2022-12-11T03:00:06.557Z,95181.00
2022-12-11T03:02:33.251Z,95182.59
2022-12-11T03:05:00.176Z,95181.63
2022-12-11T03:07:32.853Z,95191.94
2022-12-11T03:09:59.889Z,95193.28
2022-12-11T03:12:32.780Z,95191.66
2022-12-11T03:15:02.051Z,95207.59
2022-12-11T03:17:37.601Z,95194.88
2022-12-11T03:20:05.186Z,95186.59
2022-12-11T03:22:42.786Z,95201.50
2022-12-11T03:25:17.013Z,95197.34
2022-12-11T03:27:57.128Z,95205.78
2022-12-11T03:30:25.849Z,95207.09
2022-12-11T03:33:01.238Z,95221.75
2022-12-11T03:35:27.854Z,95209.63
2022-12-11T03:37:56.704Z,95209.50
2022-12-11T03:40:25.823Z,95213.63
2022-12-11T03:42:55.942Z,95219.88
2022-12-11T03:45:24.875Z,95216.44
2022-12-11T03:47:53.626Z,95214.38
2022-12-11T03:50:22.808Z,95220.59
2022-12-11T03:52:51.097Z,95211.44
2022-12-11T03:55:21.210Z,95229.00
2022-12-11T03:57:48.621Z,95212.16
2022-12-11T04:00:19.788Z,95220.00
2022-12-11T04:03:12.717Z,95208.63
2022-12-11T04:05:45.568Z,95203.75
2022-12-11T04:08:12.677Z,95216.31
2022-12-11T04:10:40.450Z,95205.53
2022-12-11T04:13:07.995Z,95216.16
2022-12-11T04:15:35.486Z,95206.88
2022-12-11T04:18:21.066Z,95216.78
2022-12-11T04:21:06.177Z,95204.66
2022-12-11T04:23:51.592Z,95204.94
2022-12-11T04:26:20.326Z,95210.25
2022-12-11T04:28:47.966Z,95210.84
2022-12-11T04:31:17.931Z,95210.13
2022-12-11T04:33:44.723Z,95207.91
2022-12-11T04:36:12.468Z,95203.19
2022-12-11T04:38:39.192Z,95213.84
2022-12-11T04:41:09.497Z,95205.28
2022-12-11T04:43:36.528Z,95212.38
2022-12-11T04:46:09.870Z,95207.34
2022-12-11T04:48:37.391Z,95196.56
2022-12-11T04:51:04.400Z,95208.81
2022-12-11T04:53:32.442Z,95207.81
2022-12-11T04:56:00.195Z,95207.66
2022-12-11T04:58:27.333Z,95203.22
2022-12-11T05:00:54.227Z,95205.28
2022-12-11T05:03:20.855Z,95207.38
2022-12-11T05:05:49.502Z,95202.34
2022-12-11T05:08:20.177Z,95197.47
2022-12-11T05:10:56.886Z,95185.22
2022-12-11T05:13:23.526Z,95198.97
2022-12-11T05:15:50.436Z,95198.50
2022-12-11T05:18:17.105Z,95185.97
2022-12-11T05:20:43.746Z,95192.44
2022-12-11T05:23:10.358Z,95193.19
2022-12-11T05:25:37.123Z,95179.91
2022-12-11T05:28:03.813Z,95184.94
2022-12-11T05:30:30.450Z,95181.97
2022-12-11T05:32:57.213Z,95177.72
2022-12-11T05:35:23.782Z,95194.69
2022-12-11T05:37:50.377Z,95189.06
2022-12-11T05:40:17.025Z,95178.13
2022-12-11T05:42:43.726Z,95193.78
2022-12-11T05:45:11.038Z,95184.03
2022-12-11T05:47:37.770Z,95187.13
2022-12-11T05:50:04.533Z,95186.56
2022-12-11T05:52:31.960Z,95184.38
2022-12-11T05:54:58.541Z,95188.78
2022-12-11T05:57:25.156Z,95182.44
2022-12-11T05:59:51.805Z,95187.03
2022-12-11T06:02:18.672Z,95197.81
2022-12-11T06:04:45.361Z,95181.00
2022-12-11T06:07:12.135Z,95191.75
2022-12-11T06:09:38.807Z,95190.41
2022-12-11T06:12:05.521Z,95182.59
2022-12-11T06:14:32.186Z,95185.28
2022-12-11T06:16:58.797Z,95179.66
2022-12-11T06:19:25.430Z,95179.81
2022-12-11T06:21:52.036Z,95180.09
2022-12-11T06:24:18.709Z,95176.69
2022-12-11T06:26:45.372Z,95183.63
2022-12-11T06:29:13.215Z,95183.63
2022-12-11T06:31:40.420Z,95195.72
2022-12-11T06:34:07.266Z,95179.06
2022-12-11T06:36:33.945Z,95169.63
2022-12-11T06:39:00.638Z,95189.50
2022-12-11T06:41:27.328Z,95181.72
2022-12-11T06:43:53.970Z,95189.50
2022-12-11T06:46:21.276Z,95184.38
2022-12-11T06:48:48.877Z,95189.22
2022-12-11T06:51:18.347Z,95183.63
2022-12-11T06:53:45.704Z,95193.66
2022-12-11T06:56:15.270Z,95170.06
2022-12-11T06:58:43.049Z,95185.09
2022-12-11T07:01:17.496Z,95185.09
2022-12-11T07:03:44.451Z,95176.53
2022-12-11T07:06:11.168Z,95178.28
2022-12-11T07:08:37.837Z,95183.00
2022-12-11T07:11:09.614Z,95199.69
2022-12-11T07:13:36.632Z,95180.53
2022-12-11T07:16:04.759Z,95183.59
2022-12-11T07:18:32.391Z,95175.97
2022-12-11T07:21:00.452Z,95187.47
2022-12-11T07:23:30.078Z,95199.53
2022-12-11T07:25:57.800Z,95193.22
2022-12-11T07:28:24.532Z,95207.09
2022-12-11T07:30:51.198Z,95206.19
2022-12-11T07:33:17.847Z,95206.81
2022-12-11T07:35:44.590Z,95197.78
2022-12-11T07:38:11.644Z,95205.00
2022-12-11T07:40:38.287Z,95205.91
2022-12-11T07:43:04.912Z,95212.69
2022-12-11T07:45:31.961Z,95208.72
2022-12-11T07:47:59.214Z,95219.19
2022-12-11T07:50:25.821Z,95213.28
2022-12-11T07:52:52.732Z,95191.91
2022-12-11T07:55:19.362Z,95210.19
2022-12-11T07:57:46.028Z,95201.63
2022-12-11T08:00:13.001Z,95226.59
2022-12-11T08:02:39.651Z,95219.19
2022-12-11T08:05:07.067Z,95210.63
2022-12-11T08:07:35.631Z,95208.09
2022-12-11T08:10:03.171Z,95214.47
2022-12-11T08:12:29.905Z,95192.78
2022-12-11T08:14:56.536Z,95218.31
2022-12-11T08:17:28.733Z,95218.88
2022-12-11T08:19:56.871Z,95214.19
2022-12-11T08:22:23.486Z,95208.56
2022-12-11T08:24:50.107Z,95204.59
2022-12-11T08:27:16.785Z,95204.72
2022-12-11T08:29:43.447Z,95211.81
2022-12-11T08:32:12.476Z,95204.75
2022-12-11T08:34:39.600Z,95224.53
2022-12-11T08:37:06.233Z,95221.13
2022-12-11T08:39:32.822Z,95226.44
2022-12-11T08:41:59.453Z,95223.50
2022-12-11T08:44:27.193Z,95225.53
2022-12-11T08:46:53.829Z,95228.53
2022-12-11T08:49:20.500Z,95228.81
2022-12-11T08:51:47.140Z,95233.97
2022-12-11T08:54:13.778Z,95237.06
2022-12-11T08:56:40.434Z,95237.81
2022-12-11T08:59:07.427Z,95241.78
2022-12-11T09:01:34.250Z,95246.34
2022-12-11T09:04:00.933Z,95237.06
2022-12-11T09:06:30.150Z,95227.19
2022-12-11T09:08:59.917Z,95226.00
2022-12-11T09:11:29.382Z,95232.94
2022-12-11T09:13:56.115Z,95233.53
2022-12-11T09:16:24.917Z,95231.47
2022-12-11T09:18:53.522Z,95229.97
2022-12-11T09:21:22.625Z,95232.94
2022-12-11T09:23:52.361Z,95234.84
2022-12-11T09:26:20.168Z,95234.25
2022-12-11T09:28:47.485Z,95221.28
2022-12-11T09:31:24.906Z,95229.84
2022-12-11T09:33:55.109Z,95232.34
2022-12-11T09:36:22.187Z,95226.16
2022-12-11T09:38:49.041Z,95233.22
2022-12-11T09:41:21.637Z,95224.38
2022-12-11T09:44:20.794Z,95215.50
2022-12-11T09:46:48.705Z,95224.06
2022-12-11T09:49:39.489Z,95220.69
2022-12-11T09:52:32.571Z,95224.34
2022-12-11T09:55:03.955Z,95213.28
2022-12-11T09:57:55.781Z,95202.38
2022-12-11T10:00:59.536Z,95210.75
2022-12-11T10:03:47.293Z,95212.25
2022-12-11T10:06:33.200Z,95207.97
2022-12-11T10:09:25.572Z,95211.81
2022-12-11T10:12:17.162Z,95193.78
2022-12-11T10:15:05.309Z,95206.47
2022-12-11T10:17:36.922Z,95203.53
2022-12-11T10:20:15.604Z,95198.06
2022-12-11T10:22:42.778Z,95190.09
2022-12-11T10:25:25.507Z,95189.38
2022-12-11T10:27:52.974Z,95189.81
2022-12-11T10:30:25.962Z,95186.41
2022-12-11T10:33:09.168Z,95183.00
2022-12-11T10:35:41.944Z,95183.75
2022-12-11T10:38:23.981Z,95181.97
2022-12-11T10:40:54.784Z,95183.91
2022-12-11T10:43:35.803Z,95178.59
2022-12-11T10:46:03.542Z,95181.66
2022-12-11T10:48:30.237Z,95172.25
2022-12-11T10:51:07.143Z,95183.47
2022-12-11T10:53:38.873Z,95178.59
2022-12-11T10:56:06.697Z,95168.84
2022-12-11T10:58:37.450Z,95161.59
2022-12-11T11:01:14.209Z,95163.22
2022-12-11T11:04:04.835Z,95156.28
2022-12-11T11:06:31.532Z,95143.16
2022-12-11T11:09:00.494Z,95146.72
2022-12-11T11:11:33.868Z,95151.84
2022-12-11T11:14:22.821Z,95151.13
2022-12-11T11:16:52.573Z,95140.03
2022-12-11T11:19:29.359Z,95139.91
2022-12-11T11:22:05.572Z,95144.91
2022-12-11T11:24:41.602Z,95126.91
2022-12-11T11:27:14.502Z,95119.66
2022-12-11T11:29:42.726Z,95122.19
2022-12-11T11:32:23.976Z,95114.81
2022-12-11T11:34:50.650Z,95112.56
2022-12-11T11:37:33.950Z,95117.47
2022-12-11T11:40:13.886Z,95111.84
2022-12-11T11:42:40.510Z,95105.63
2022-12-11T11:45:16.956Z,95114.81
2022-12-11T11:48:07.781Z,95109.47
2022-12-11T11:50:41.046Z,95106.53
2022-12-11T11:53:38.274Z,95111.53
2022-12-11T11:56:17.879Z,95110.31
2022-12-11T11:59:34.564Z,95108.28
2022-12-11T12:02:01.238Z,95104.84
2022-12-11T12:04:35.010Z,95094.25
2022-12-11T12:07:20.406Z,95095.72
2022-12-11T12:10:34.929Z,95098.03
2022-12-11T12:13:23.817Z,95093.19
2022-12-11T12:15:59.445Z,95087.44
2022-12-11T12:18:58.403Z,95089.34
2022-12-11T12:21:35.689Z,95092.78
2022-12-11T12:24:20.573Z,95089.69
2022-12-11T12:26:55.912Z,95084.06
2022-12-11T12:29:53.518Z,95087.03
2022-12-11T12:32:59.256Z,95091.28
2022-12-11T12:35:36.627Z,95095.72
2022-12-11T12:38:30.368Z,95082.88
2022-12-11T12:41:20.530Z,95095.09
2022-12-11T12:44:11.235Z,95078.31
2022-12-11T12:46:40.906Z,95080.34
2022-12-11T12:49:13.621Z,95076.34
2022-12-11T12:51:43.628Z,95071.19
2022-12-11T12:54:16.565Z,95067.78
2022-12-11T12:56:45.244Z,95067.94
2022-12-11T12:59:26.923Z,95068.78
2022-12-11T13:01:57.379Z,95083.84
2022-12-11T13:05:01.103Z,95080.59
2022-12-11T13:07:28.552Z,95075.69
2022-12-11T13:10:21.736Z,95079.25
2022-12-11T13:12:48.555Z,95070.69
2022-12-11T13:15:35.757Z,95080.72
2022-12-11T13:18:34.948Z,95074.38
2022-12-11T13:21:03.985Z,95078.66
2022-12-11T13:23:35.269Z,95077.06
2022-12-11T13:26:04.135Z,95079.31
2022-12-11T13:28:33.666Z,95073.13
2022-12-11T13:31:04.539Z,95076.38
2022-12-11T13:33:32.554Z,95070.50
2022-12-11T13:36:25.503Z,95082.88
2022-12-11T13:38:56.957Z,95087.31
2022-12-11T13:41:24.048Z,95067.84
2022-12-11T13:43:52.437Z,95087.56
2022-12-11T13:46:29.330Z,95085.03
2022-12-11T13:49:01.034Z,95080.28
2022-12-11T13:51:30.649Z,95074.88
2022-12-11T13:54:06.343Z,95084.13
2022-12-11T13:56:33.219Z,95085.91
2022-12-11T13:58:59.848Z,95080.50
2022-12-11T14:01:32.753Z,95089.06
2022-12-11T14:04:12.516Z,95084.06
2022-12-11T14:06:39.946Z,95079.53
2022-12-11T14:09:08.289Z,95083.75
2022-12-11T14:11:37.880Z,95085.34
2022-12-11T14:14:17.983Z,95078.00
2022-12-11T14:16:51.719Z,95084.63
2022-12-11T14:19:21.038Z,95085.50
2022-12-11T14:22:02.387Z,95079.03
2022-12-11T14:24:30.267Z,95085.03
2022-12-11T14:26:57.802Z,95079.22
2022-12-11T14:29:25.776Z,95092.63
2022-12-11T14:31:53.080Z,95085.56
2022-12-11T14:34:26.505Z,95091.19
2022-12-11T14:36:54.487Z,95091.31
2022-12-11T14:39:28.600Z,95091.47
2022-12-11T14:42:13.781Z,95090.03
2022-12-11T14:44:49.226Z,95099.63
2022-12-11T14:47:27.383Z,95095.03
2022-12-11T14:49:59.198Z,95102.75
2022-12-11T14:52:31.290Z,95090.66
2022-12-11T14:55:09.185Z,95088.31
2022-12-11T14:57:37.110Z,95100.38
2022-12-11T15:00:05.551Z,95111.72
2022-12-11T15:02:35.487Z,95090.34
2022-12-11T15:05:12.278Z,95100.19
2022-12-11T15:07:41.215Z,95101.81
2022-12-11T15:10:20.986Z,95093.84
2022-12-11T15:12:47.670Z,95099.19
2022-12-11T15:15:18.212Z,95100.03
2022-12-11T15:17:51.161Z,95099.59
2022-12-11T15:20:26.855Z,95092.78
2022-12-11T15:22:54.644Z,95092.41
2022-12-11T15:25:27.151Z,95094.38
2022-12-11T15:27:56.920Z,95091.97
2022-12-11T15:30:26.943Z,95091.69
2022-12-11T15:33:19.949Z,95100.72
2022-12-11T15:36:24.424Z,95094.66
2022-12-11T15:38:51.189Z,95089.03
2022-12-11T15:41:21.508Z,95101.00
2022-12-11T15:43:48.254Z,95104.09
2022-12-11T15:46:15.001Z,95096.25
2022-12-11T15:48:41.702Z,95112.66
2022-12-11T15:51:09.757Z,95100.97
2022-12-11T15:53:40.035Z,95097.56
2022-12-11T15:56:07.256Z,95112.59
2022-12-11T15:58:35.569Z,95116.44
2022-12-11T16:01:02.425Z,95112.47
2022-12-11T16:03:29.294Z,95112.88
2022-12-11T16:05:56.036Z,95110.06
2022-12-11T16:08:24.261Z,95108.16
2022-12-11T16:10:54.099Z,95117.16
2022-12-11T16:13:21.564Z,95116.44
2022-12-11T16:15:50.635Z,95125.56
2022-12-11T16:18:22.599Z,95130.19
2022-12-11T16:20:51.296Z,95129.00
2022-12-11T16:23:18.525Z,95125.00
2022-12-11T16:25:46.812Z,95128.69
2022-12-11T16:28:15.561Z,95123.81
2022-12-11T16:30:43.703Z,95120.28
2022-12-11T16:33:13.093Z,95126.34
2022-12-11T16:35:42.090Z,95129.47
2022-12-11T16:38:10.161Z,95126.19
2022-12-11T16:40:37.822Z,95120.16
2022-12-11T16:43:05.812Z,95136.69
2022-12-11T16:45:32.730Z,95136.69
2022-12-11T16:48:02.851Z,95143.94
2022-12-11T16:50:29.462Z,95129.47
2022-12-11T16:52:57.090Z,95142.03
2022-12-11T16:55:23.874Z,95132.84
2022-12-11T16:57:50.545Z,95140.69
2022-12-11T17:00:17.517Z,95137.03
2022-12-11T17:02:44.279Z,95131.00
2022-12-11T17:05:11.544Z,95133.38
2022-12-11T17:07:38.489Z,95128.66
2022-12-11T17:10:05.506Z,95135.13
2022-12-11T17:12:32.201Z,95133.50
2022-12-11T17:14:58.955Z,95129.53
2022-12-11T17:17:25.865Z,95137.94
2022-12-11T17:19:52.509Z,95141.31
2022-12-11T17:22:19.303Z,95125.41
2022-12-11T17:24:45.995Z,95135.13
2022-12-11T17:27:12.633Z,95130.28
2022-12-11T17:29:39.875Z,95136.47
2022-12-11T17:32:06.900Z,95137.22
2022-12-11T17:34:38.063Z,95131.47
2022-12-11T17:37:05.669Z,95138.22
2022-12-11T17:39:32.376Z,95136.03
2022-12-11T17:41:59.109Z,95128.94
2022-12-11T17:44:26.901Z,95146.06
2022-12-11T17:46:53.773Z,95143.41
2022-12-11T17:49:20.586Z,95144.88
2022-12-11T17:51:48.048Z,95146.50
2022-12-11T17:54:15.119Z,95145.31
2022-12-11T17:56:41.766Z,95142.66
2022-12-11T17:59:08.433Z,95147.78
2022-12-11T18:01:35.256Z,95146.34
2022-12-11T18:04:02.434Z,95149.44
2022-12-11T18:06:29.970Z,95156.22
2022-12-11T18:08:57.485Z,95133.50
2022-12-11T18:11:24.508Z,95153.84
2022-12-11T18:13:52.532Z,95147.78
2022-12-11T18:16:32.611Z,95162.84
2022-12-11T18:18:59.599Z,95151.03
2022-12-11T18:21:32.223Z,95156.47
2022-12-11T18:23:59.431Z,95155.19
2022-12-11T18:26:27.405Z,95167.25
2022-12-11T18:28:54.230Z,95157.22
2022-12-11T18:31:21.845Z,95155.19
2022-12-11T18:33:48.900Z,95158.28
2022-12-11T18:36:16.843Z,95167.41
2022-12-11T18:38:43.762Z,95165.94
2022-12-11T18:41:13.203Z,95166.81
2022-12-11T18:43:40.903Z,95171.97
2022-12-11T18:46:14.380Z,95176.25
2022-12-11T18:48:42.828Z,95167.25
2022-12-11T18:51:12.299Z,95177.88
2022-12-11T18:53:43.802Z,95173.59
2022-12-11T18:56:15.664Z,95171.97
2022-12-11T18:58:42.924Z,95202.53
2022-12-11T19:01:17.418Z,95139.69
2022-12-11T19:03:44.500Z,95130.56
2022-12-11T19:06:18.982Z,95179.19
2022-12-11T19:08:46.327Z,95184.09
2022-12-11T19:11:23.557Z,95199.59
2022-12-11T19:13:51.576Z,95183.78
2022-12-11T19:16:22.477Z,95194.56
2022-12-11T19:18:50.317Z,95143.53
2022-12-11T19:21:18.731Z,95162.56
2022-12-11T19:23:46.386Z,95176.44
2022-12-11T19:26:16.066Z,95177.47
2022-12-11T19:28:43.137Z,95173.19
2022-12-11T19:31:15.281Z,95170.84
2022-12-11T19:33:43.347Z,95175.69
2022-12-11T19:36:16.639Z,95184.09
2022-12-11T19:38:45.252Z,95177.03
2022-12-11T19:41:29.165Z,95180.72
2022-12-11T19:43:57.513Z,95171.28
2022-12-11T19:46:24.392Z,95178.06
2022-12-11T19:48:55.850Z,95164.06
2022-12-11T19:51:25.493Z,95169.66
2022-12-11T19:53:52.326Z,95178.78
2022-12-11T19:56:20.216Z,95184.25
2022-12-11T19:58:47.622Z,95201.06
2022-12-11T20:01:28.757Z,95175.53
2022-12-11T20:03:58.428Z,95185.88
2022-12-11T20:06:27.651Z,95177.47
2022-12-11T20:08:54.377Z,95179.81
2022-12-11T20:11:21.150Z,95178.06
2022-12-11T20:13:48.556Z,95181.59
2022-12-11T20:16:17.037Z,95177.47
2022-12-11T20:18:44.418Z,95178.94
2022-12-11T20:21:14.440Z,95179.53
2022-12-11T20:23:41.554Z,95181.28
2022-12-11T20:26:14.963Z,95178.81
2022-12-11T20:28:42.755Z,95163.44
2022-12-11T20:31:20.037Z,95170.81
2022-12-11T20:33:49.304Z,95176.00
2022-12-11T20:36:18.952Z,95187.03
2022-12-11T20:38:46.226Z,95180.13
2022-12-11T20:41:15.307Z,95182.34
2022-12-11T20:43:42.516Z,95168.91
2022-12-11T20:46:11.945Z,95182.63
2022-12-11T20:48:40.386Z,95183.81
2022-12-11T20:51:09.756Z,95171.56
2022-12-11T20:53:42.657Z,95177.31
2022-12-11T20:56:16.252Z,95180.72
2022-12-11T20:58:43.627Z,95169.66
2022-12-11T21:01:19.173Z,95169.94
2022-12-11T21:03:46.542Z,95166.09
2022-12-11T21:06:34.480Z,95171.56
2022-12-11T21:09:04.346Z,95177.63
2022-12-11T21:11:31.104Z,95183.38
2022-12-11T21:13:58.148Z,95162.13
2022-12-11T21:16:25.501Z,95178.34
2022-12-11T21:18:53.478Z,95181.28
2022-12-11T21:21:20.125Z,95132.47
2022-12-11T21:23:46.861Z,95158.72
2022-12-11T21:26:13.592Z,95176.00
2022-12-11T21:28:40.499Z,95150.19
2022-12-11T21:31:11.319Z,95165.38
2022-12-11T21:33:38.015Z,95201.97
2022-12-11T21:36:06.508Z,95153.56
2022-12-11T21:38:33.638Z,95169.50
2022-12-11T21:41:08.412Z,95162.00
2022-12-11T21:43:35.113Z,95140.16
2022-12-11T21:46:02.476Z,95166.69
2022-12-11T21:48:29.506Z,95157.25
2022-12-11T21:50:56.290Z,95171.69
2022-12-11T21:53:23.057Z,95152.53
2022-12-11T21:55:49.790Z,95176.13
2022-12-11T21:58:16.418Z,95163.31
2022-12-11T22:00:45.496Z,95167.31
2022-12-11T22:03:12.213Z,95158.00
2022-12-11T22:05:39.005Z,95152.53
2022-12-11T22:08:05.926Z,95152.41
2022-12-11T22:10:32.778Z,95166.72
2022-12-11T22:12:59.654Z,95158.59
2022-12-11T22:15:26.384Z,95170.38
2022-12-11T22:17:53.011Z,95162.28
2022-12-11T22:20:19.819Z,95167.88
2022-12-11T22:22:46.891Z,95164.22
2022-12-11T22:25:14.135Z,95174.09
2022-12-11T22:27:40.923Z,95117.31
2022-12-11T22:30:08.419Z,95145.91
2022-12-11T22:32:35.290Z,95167.31
2022-12-11T22:35:02.065Z,95160.50
2022-12-11T22:37:29.766Z,95137.50
2022-12-11T22:39:56.570Z,95136.16
2022-12-11T22:42:23.390Z,95158.59
2022-12-11T22:44:50.104Z,95131.59
2022-12-11T22:47:16.830Z,95142.22
2022-12-11T22:49:43.527Z,95133.38
2022-12-11T22:52:10.454Z,95156.09
2022-12-11T22:54:41.865Z,95161.41
2022-12-11T22:57:09.076Z,95166.09
2022-12-11T22:59:36.584Z,95174.06
2022-12-11T23:02:03.850Z,95160.78
2022-12-11T23:04:30.929Z,95169.78
2022-12-11T23:06:58.539Z,95170.06
2022-12-11T23:09:28.963Z,95170.38
2022-12-11T23:11:58.859Z,95174.81
2022-12-11T23:14:26.072Z,95169.34
2022-12-11T23:16:52.967Z,95170.06
2022-12-11T23:19:25.331Z,95167.25
2022-12-11T23:21:53.028Z,95137.75
2022-12-11T23:24:19.900Z,95151.34
2022-12-11T23:26:48.250Z,95215.31
2022-12-11T23:29:15.400Z,95182.09
2022-12-11T23:31:42.415Z,95232.06
2022-12-11T23:34:09.325Z,95172.44
2022-12-11T23:36:36.183Z,95158.81
2022-12-11T23:39:03.657Z,95136.28
2022-12-11T23:41:30.492Z,95144.81
2022-12-11T23:43:57.334Z,95185.41
2022-12-11T23:46:25.281Z,95177.59
2022-12-11T23:48:53.129Z,95183.78
2022-12-11T23:51:22.137Z,95166.81
2022-12-11T23:53:49.619Z,95179.31
2022-12-11T23:56:19.744Z,95165.63
2022-12-11T23:58:49.170Z,95151.91
